sensor_id;sensor_type;location;lat;lon;timestamp;P1;durP1;ratioP1;P2;durP2;ratioP2
62796;SDS011;48839;48.546;-4.178;2023-05-16T00:00:16;4.97;;;2.10;;
62796;SDS011;48839;48.546;-4.178;2023-05-16T00:02:43;4.93;;;1.77;;
62796;SDS011;48839;48.546;-4.178;2023-05-16T00:05:09;5.78;;;1.88;;
62796;SDS011;48839;48.546;-4.178;2023-05-16T00:07:38;9.65;;;1.58;;
62796;SDS011;48839;48.546;-4.178;2023-05-16T00:10:04;5.30;;;1.50;;
62796;SDS011;48839;48.546;-4.178;2023-05-16T00:12:31;5.28;;;1.45;;
62796;SDS011;48839;48.546;-4.178;2023-05-16T00:14:57;7.22;;;2.65;;
62796;SDS011;48839;48.546;-4.178;2023-05-16T00:17:23;5.28;;;1.83;;
62796;SDS011;48839;48.546;-4.178;2023-05-16T00:19:52;6.22;;;2.38;;
62796;SDS011;48839;48.546;-4.178;2023-05-16T00:22:22;5.47;;;1.88;;
62796;SDS011;48839;48.546;-4.178;2023-05-16T00:24:48;6.00;;;1.30;;
62796;SDS011;48839;48.546;-4.178;2023-05-16T00:27:14;7.07;;;1.90;;
62796;SDS011;48839;48.546;-4.178;2023-05-16T00:29:40;4.25;;;1.70;;
62796;SDS011;48839;48.546;-4.178;2023-05-16T00:32:06;6.97;;;1.77;;
62796;SDS011;48839;48.546;-4.178;2023-05-16T00:34:33;8.60;;;2.20;;
62796;SDS011;48839;48.546;-4.178;2023-05-16T00:37:00;6.22;;;2.00;;
62796;SDS011;48839;48.546;-4.178;2023-05-16T00:39:26;5.10;;;2.20;;
62796;SDS011;48839;48.546;-4.178;2023-05-16T00:41:52;5.55;;;2.72;;
62796;SDS011;48839;48.546;-4.178;2023-05-16T00:44:18;5.03;;;1.75;;
62796;SDS011;48839;48.546;-4.178;2023-05-16T00:46:45;9.43;;;2.30;;
62796;SDS011;48839;48.546;-4.178;2023-05-16T00:49:11;3.83;;;2.00;;
62796;SDS011;48839;48.546;-4.178;2023-05-16T00:51:37;6.45;;;2.03;;
62796;SDS011;48839;48.546;-4.178;2023-05-16T00:54:04;5.45;;;2.03;;
62796;SDS011;48839;48.546;-4.178;2023-05-16T00:56:30;7.35;;;1.40;;
62796;SDS011;48839;48.546;-4.178;2023-05-16T00:58:56;7.07;;;1.77;;
62796;SDS011;48839;48.546;-4.178;2023-05-16T01:01:24;4.28;;;1.45;;
62796;SDS011;48839;48.546;-4.178;2023-05-16T01:03:51;12.55;;;3.13;;
62796;SDS011;48839;48.546;-4.178;2023-05-16T01:06:17;8.63;;;1.88;;
62796;SDS011;48839;48.546;-4.178;2023-05-16T01:08:43;9.38;;;1.80;;
62796;SDS011;48839;48.546;-4.178;2023-05-16T01:13:40;8.73;;;2.30;;
62796;SDS011;48839;48.546;-4.178;2023-05-16T01:16:12;6.00;;;1.35;;
62796;SDS011;48839;48.546;-4.178;2023-05-16T01:18:46;4.95;;;1.83;;
62796;SDS011;48839;48.546;-4.178;2023-05-16T01:21:23;4.45;;;1.50;;
62796;SDS011;48839;48.546;-4.178;2023-05-16T01:24:02;5.70;;;1.67;;
62796;SDS011;48839;48.546;-4.178;2023-05-16T01:26:29;5.30;;;1.60;;
62796;SDS011;48839;48.546;-4.178;2023-05-16T01:28:56;5.50;;;2.00;;
62796;SDS011;48839;48.546;-4.178;2023-05-16T01:31:23;7.75;;;2.13;;
62796;SDS011;48839;48.546;-4.178;2023-05-16T01:33:49;5.68;;;1.80;;
62796;SDS011;48839;48.546;-4.178;2023-05-16T01:36:25;4.78;;;1.63;;
62796;SDS011;48839;48.546;-4.178;2023-05-16T01:44:04;2.78;;;2.13;;
62796;SDS011;48839;48.546;-4.178;2023-05-16T01:46:33;6.82;;;2.63;;
62796;SDS011;48839;48.546;-4.178;2023-05-16T01:49:09;8.25;;;2.10;;
62796;SDS011;48839;48.546;-4.178;2023-05-16T01:51:44;13.55;;;3.75;;
62796;SDS011;48839;48.546;-4.178;2023-05-16T01:54:11;10.35;;;4.25;;
62796;SDS011;48839;48.546;-4.178;2023-05-16T01:56:37;5.78;;;2.95;;
62796;SDS011;48839;48.546;-4.178;2023-05-16T01:59:03;10.73;;;2.17;;
62796;SDS011;48839;48.546;-4.178;2023-05-16T02:01:30;6.88;;;2.60;;
62796;SDS011;48839;48.546;-4.178;2023-05-16T02:03:56;5.90;;;1.90;;
62796;SDS011;48839;48.546;-4.178;2023-05-16T02:06:22;5.70;;;2.50;;
62796;SDS011;48839;48.546;-4.178;2023-05-16T02:08:50;7.28;;;2.10;;
62796;SDS011;48839;48.546;-4.178;2023-05-16T02:11:16;4.18;;;1.85;;
62796;SDS011;48839;48.546;-4.178;2023-05-16T02:13:42;7.63;;;1.92;;
62796;SDS011;48839;48.546;-4.178;2023-05-16T02:16:09;2.60;;;1.70;;
62796;SDS011;48839;48.546;-4.178;2023-05-16T02:18:35;2.10;;;1.40;;
62796;SDS011;48839;48.546;-4.178;2023-05-16T02:21:01;5.50;;;2.05;;
62796;SDS011;48839;48.546;-4.178;2023-05-16T02:23:27;6.47;;;1.70;;
62796;SDS011;48839;48.546;-4.178;2023-05-16T02:25:53;5.72;;;1.70;;
62796;SDS011;48839;48.546;-4.178;2023-05-16T02:28:20;3.10;;;1.50;;
62796;SDS011;48839;48.546;-4.178;2023-05-16T02:30:54;6.40;;;1.70;;
62796;SDS011;48839;48.546;-4.178;2023-05-16T02:33:21;6.47;;;2.05;;
62796;SDS011;48839;48.546;-4.178;2023-05-16T02:35:47;3.95;;;1.65;;
62796;SDS011;48839;48.546;-4.178;2023-05-16T02:38:13;3.30;;;1.52;;
62796;SDS011;48839;48.546;-4.178;2023-05-16T02:40:41;8.15;;;1.88;;
62796;SDS011;48839;48.546;-4.178;2023-05-16T02:43:07;3.35;;;1.10;;
62796;SDS011;48839;48.546;-4.178;2023-05-16T02:45:34;3.60;;;1.00;;
62796;SDS011;48839;48.546;-4.178;2023-05-16T02:48:00;3.85;;;1.30;;
62796;SDS011;48839;48.546;-4.178;2023-05-16T02:50:26;5.03;;;1.48;;
62796;SDS011;48839;48.546;-4.178;2023-05-16T02:52:52;4.07;;;1.50;;
62796;SDS011;48839;48.546;-4.178;2023-05-16T02:55:18;6.20;;;1.80;;
62796;SDS011;48839;48.546;-4.178;2023-05-16T02:57:44;8.43;;;2.05;;
62796;SDS011;48839;48.546;-4.178;2023-05-16T03:00:10;5.55;;;1.63;;
62796;SDS011;48839;48.546;-4.178;2023-05-16T03:02:36;6.20;;;2.20;;
62796;SDS011;48839;48.546;-4.178;2023-05-16T03:05:03;3.25;;;1.55;;
62796;SDS011;48839;48.546;-4.178;2023-05-16T03:07:30;6.13;;;1.48;;
62796;SDS011;48839;48.546;-4.178;2023-05-16T03:09:56;2.78;;;1.42;;
62796;SDS011;48839;48.546;-4.178;2023-05-16T03:12:22;5.05;;;1.77;;
62796;SDS011;48839;48.546;-4.178;2023-05-16T03:14:48;5.70;;;1.80;;
62796;SDS011;48839;48.546;-4.178;2023-05-16T03:17:15;30.13;;;14.30;;
62796;SDS011;48839;48.546;-4.178;2023-05-16T03:19:41;23.90;;;14.05;;
62796;SDS011;48839;48.546;-4.178;2023-05-16T03:22:07;21.63;;;7.55;;
62796;SDS011;48839;48.546;-4.178;2023-05-16T03:24:33;8.43;;;5.10;;
62796;SDS011;48839;48.546;-4.178;2023-05-16T03:26:59;4.50;;;3.00;;
62796;SDS011;48839;48.546;-4.178;2023-05-16T03:29:27;3.13;;;1.60;;
62796;SDS011;48839;48.546;-4.178;2023-05-16T03:31:54;7.68;;;3.17;;
62796;SDS011;48839;48.546;-4.178;2023-05-16T03:34:20;3.88;;;1.98;;
62796;SDS011;48839;48.546;-4.178;2023-05-16T03:36:47;4.78;;;1.90;;
62796;SDS011;48839;48.546;-4.178;2023-05-16T03:39:13;3.97;;;1.63;;
62796;SDS011;48839;48.546;-4.178;2023-05-16T03:41:39;3.90;;;1.90;;
62796;SDS011;48839;48.546;-4.178;2023-05-16T03:44:05;5.68;;;5.15;;
62796;SDS011;48839;48.546;-4.178;2023-05-16T03:46:31;4.00;;;2.42;;
62796;SDS011;48839;48.546;-4.178;2023-05-16T03:48:57;6.43;;;1.58;;
62796;SDS011;48839;48.546;-4.178;2023-05-16T03:51:24;5.65;;;1.83;;
62796;SDS011;48839;48.546;-4.178;2023-05-16T03:53:50;4.93;;;2.05;;
62796;SDS011;48839;48.546;-4.178;2023-05-16T03:56:16;4.30;;;1.88;;
62796;SDS011;48839;48.546;-4.178;2023-05-16T03:58:42;5.00;;;2.05;;
62796;SDS011;48839;48.546;-4.178;2023-05-16T04:01:08;2.47;;;1.52;;
62796;SDS011;48839;48.546;-4.178;2023-05-16T04:03:34;4.50;;;1.45;;
62796;SDS011;48839;48.546;-4.178;2023-05-16T04:06:02;3.78;;;1.60;;
62796;SDS011;48839;48.546;-4.178;2023-05-16T04:08:28;5.03;;;1.67;;
62796;SDS011;48839;48.546;-4.178;2023-05-16T04:10:55;8.65;;;2.15;;
62796;SDS011;48839;48.546;-4.178;2023-05-16T04:13:21;4.50;;;1.90;;
62796;SDS011;48839;48.546;-4.178;2023-05-16T04:15:47;4.70;;;1.60;;
62796;SDS011;48839;48.546;-4.178;2023-05-16T04:18:13;1.85;;;1.45;;
62796;SDS011;48839;48.546;-4.178;2023-05-16T04:20:40;4.45;;;1.20;;
62796;SDS011;48839;48.546;-4.178;2023-05-16T04:23:06;3.25;;;1.40;;
62796;SDS011;48839;48.546;-4.178;2023-05-16T04:25:34;6.07;;;1.15;;
62796;SDS011;48839;48.546;-4.178;2023-05-16T04:28:01;3.90;;;1.50;;
62796;SDS011;48839;48.546;-4.178;2023-05-16T04:30:27;1.73;;;1.27;;
62796;SDS011;48839;48.546;-4.178;2023-05-16T04:32:53;3.35;;;1.50;;
62796;SDS011;48839;48.546;-4.178;2023-05-16T04:35:19;1.95;;;1.30;;
62796;SDS011;48839;48.546;-4.178;2023-05-16T04:37:46;1.85;;;1.25;;
62796;SDS011;48839;48.546;-4.178;2023-05-16T04:40:12;4.57;;;1.30;;
62796;SDS011;48839;48.546;-4.178;2023-05-16T04:42:38;2.50;;;1.13;;
62796;SDS011;48839;48.546;-4.178;2023-05-16T04:45:05;5.07;;;1.50;;
62796;SDS011;48839;48.546;-4.178;2023-05-16T04:47:35;12.02;;;2.00;;
62796;SDS011;48839;48.546;-4.178;2023-05-16T04:50:02;1.85;;;1.25;;
62796;SDS011;48839;48.546;-4.178;2023-05-16T04:52:28;2.97;;;1.33;;
62796;SDS011;48839;48.546;-4.178;2023-05-16T04:54:54;7.20;;;1.58;;
62796;SDS011;48839;48.546;-4.178;2023-05-16T04:57:20;3.47;;;1.20;;
62796;SDS011;48839;48.546;-4.178;2023-05-16T04:59:46;4.80;;;2.03;;
62796;SDS011;48839;48.546;-4.178;2023-05-16T05:02:12;6.15;;;2.25;;
62796;SDS011;48839;48.546;-4.178;2023-05-16T05:04:38;3.55;;;1.60;;
62796;SDS011;48839;48.546;-4.178;2023-05-16T05:07:04;7.07;;;1.75;;
62796;SDS011;48839;48.546;-4.178;2023-05-16T05:09:30;5.47;;;1.58;;
62796;SDS011;48839;48.546;-4.178;2023-05-16T05:11:56;2.55;;;1.67;;
62796;SDS011;48839;48.546;-4.178;2023-05-16T05:14:22;2.05;;;1.40;;
62796;SDS011;48839;48.546;-4.178;2023-05-16T05:16:48;5.85;;;2.05;;
62796;SDS011;48839;48.546;-4.178;2023-05-16T05:19:14;3.80;;;1.90;;
62796;SDS011;48839;48.546;-4.178;2023-05-16T05:21:40;2.25;;;1.73;;
62796;SDS011;48839;48.546;-4.178;2023-05-16T05:24:06;3.70;;;1.63;;
62796;SDS011;48839;48.546;-4.178;2023-05-16T05:26:32;2.75;;;1.45;;
62796;SDS011;48839;48.546;-4.178;2023-05-16T05:28:58;6.80;;;2.22;;
62796;SDS011;48839;48.546;-4.178;2023-05-16T05:31:24;9.25;;;2.88;;
62796;SDS011;48839;48.546;-4.178;2023-05-16T05:33:51;3.33;;;2.47;;
62796;SDS011;48839;48.546;-4.178;2023-05-16T05:36:17;7.00;;;2.30;;
62796;SDS011;48839;48.546;-4.178;2023-05-16T05:38:43;9.13;;;2.10;;
62796;SDS011;48839;48.546;-4.178;2023-05-16T05:41:08;6.75;;;2.00;;
62796;SDS011;48839;48.546;-4.178;2023-05-16T05:43:35;4.85;;;1.40;;
62796;SDS011;48839;48.546;-4.178;2023-05-16T05:46:02;3.92;;;1.58;;
62796;SDS011;48839;48.546;-4.178;2023-05-16T05:48:28;13.88;;;1.92;;
62796;SDS011;48839;48.546;-4.178;2023-05-16T05:50:54;3.83;;;1.80;;
62796;SDS011;48839;48.546;-4.178;2023-05-16T05:53:20;2.20;;;1.00;;
62796;SDS011;48839;48.546;-4.178;2023-05-16T05:55:46;4.50;;;1.38;;
62796;SDS011;48839;48.546;-4.178;2023-05-16T05:58:12;5.32;;;1.63;;
62796;SDS011;48839;48.546;-4.178;2023-05-16T06:00:38;4.75;;;1.40;;
62796;SDS011;48839;48.546;-4.178;2023-05-16T06:03:04;4.35;;;1.30;;
62796;SDS011;48839;48.546;-4.178;2023-05-16T06:05:30;5.38;;;1.40;;
62796;SDS011;48839;48.546;-4.178;2023-05-16T06:07:56;3.63;;;1.02;;
62796;SDS011;48839;48.546;-4.178;2023-05-16T06:10:22;6.38;;;1.00;;
62796;SDS011;48839;48.546;-4.178;2023-05-16T06:12:49;1.83;;;1.05;;
62796;SDS011;48839;48.546;-4.178;2023-05-16T06:15:15;3.05;;;1.17;;
62796;SDS011;48839;48.546;-4.178;2023-05-16T06:17:41;5.40;;;1.30;;
62796;SDS011;48839;48.546;-4.178;2023-05-16T06:20:07;6.05;;;1.58;;
62796;SDS011;48839;48.546;-4.178;2023-05-16T06:22:33;7.43;;;1.20;;
62796;SDS011;48839;48.546;-4.178;2023-05-16T06:24:59;3.92;;;1.38;;
62796;SDS011;48839;48.546;-4.178;2023-05-16T06:27:25;3.22;;;1.17;;
62796;SDS011;48839;48.546;-4.178;2023-05-16T06:29:51;7.28;;;1.20;;
62796;SDS011;48839;48.546;-4.178;2023-05-16T06:32:17;5.43;;;0.88;;
62796;SDS011;48839;48.546;-4.178;2023-05-16T06:34:43;6.93;;;1.83;;
62796;SDS011;48839;48.546;-4.178;2023-05-16T06:37:10;4.03;;;1.10;;
62796;SDS011;48839;48.546;-4.178;2023-05-16T06:39:36;5.55;;;1.35;;
62796;SDS011;48839;48.546;-4.178;2023-05-16T06:42:02;6.57;;;1.80;;
62796;SDS011;48839;48.546;-4.178;2023-05-16T06:44:28;3.25;;;1.33;;
62796;SDS011;48839;48.546;-4.178;2023-05-16T06:46:54;4.07;;;1.30;;
62796;SDS011;48839;48.546;-4.178;2023-05-16T06:49:20;6.40;;;1.30;;
62796;SDS011;48839;48.546;-4.178;2023-05-16T06:51:46;3.60;;;1.20;;
62796;SDS011;48839;48.546;-4.178;2023-05-16T06:54:12;5.60;;;1.63;;
62796;SDS011;48839;48.546;-4.178;2023-05-16T06:56:38;4.78;;;1.30;;
62796;SDS011;48839;48.546;-4.178;2023-05-16T06:59:04;6.05;;;1.63;;
62796;SDS011;48839;48.546;-4.178;2023-05-16T07:01:30;7.47;;;1.92;;
62796;SDS011;48839;48.546;-4.178;2023-05-16T07:03:56;9.13;;;1.48;;
62796;SDS011;48839;48.546;-4.178;2023-05-16T07:06:22;5.00;;;1.50;;
62796;SDS011;48839;48.546;-4.178;2023-05-16T07:08:49;8.05;;;1.58;;
62796;SDS011;48839;48.546;-4.178;2023-05-16T07:11:14;4.68;;;1.45;;
62796;SDS011;48839;48.546;-4.178;2023-05-16T07:13:41;9.80;;;1.35;;
62796;SDS011;48839;48.546;-4.178;2023-05-16T07:16:07;5.40;;;1.50;;
62796;SDS011;48839;48.546;-4.178;2023-05-16T07:18:33;3.20;;;1.35;;
62796;SDS011;48839;48.546;-4.178;2023-05-16T07:20:59;8.68;;;1.13;;
62796;SDS011;48839;48.546;-4.178;2023-05-16T07:23:25;9.65;;;1.52;;
62796;SDS011;48839;48.546;-4.178;2023-05-16T07:25:51;5.68;;;1.27;;
62796;SDS011;48839;48.546;-4.178;2023-05-16T07:28:17;6.57;;;2.25;;
62796;SDS011;48839;48.546;-4.178;2023-05-16T07:30:43;5.55;;;1.40;;
62796;SDS011;48839;48.546;-4.178;2023-05-16T07:33:10;7.68;;;1.33;;
62796;SDS011;48839;48.546;-4.178;2023-05-16T07:35:36;3.50;;;1.10;;
62796;SDS011;48839;48.546;-4.178;2023-05-16T07:38:03;4.07;;;1.20;;
62796;SDS011;48839;48.546;-4.178;2023-05-16T07:40:29;5.03;;;1.15;;
62796;SDS011;48839;48.546;-4.178;2023-05-16T07:42:55;4.90;;;1.30;;
62796;SDS011;48839;48.546;-4.178;2023-05-16T07:45:21;4.82;;;1.10;;
62796;SDS011;48839;48.546;-4.178;2023-05-16T07:47:47;7.32;;;1.95;;
62796;SDS011;48839;48.546;-4.178;2023-05-16T07:50:13;2.97;;;1.10;;
62796;SDS011;48839;48.546;-4.178;2023-05-16T07:52:39;7.78;;;1.10;;
62796;SDS011;48839;48.546;-4.178;2023-05-16T07:55:05;11.65;;;1.80;;
62796;SDS011;48839;48.546;-4.178;2023-05-16T07:57:32;4.05;;;1.05;;
62796;SDS011;48839;48.546;-4.178;2023-05-16T07:59:58;4.30;;;1.33;;
62796;SDS011;48839;48.546;-4.178;2023-05-16T08:02:24;4.68;;;1.15;;
62796;SDS011;48839;48.546;-4.178;2023-05-16T08:04:54;3.78;;;1.00;;
62796;SDS011;48839;48.546;-4.178;2023-05-16T08:07:21;5.53;;;1.40;;
62796;SDS011;48839;48.546;-4.178;2023-05-16T08:09:47;3.72;;;1.13;;
62796;SDS011;48839;48.546;-4.178;2023-05-16T08:12:13;8.45;;;2.05;;
62796;SDS011;48839;48.546;-4.178;2023-05-16T08:14:39;6.15;;;1.20;;
62796;SDS011;48839;48.546;-4.178;2023-05-16T08:17:05;5.45;;;1.20;;
62796;SDS011;48839;48.546;-4.178;2023-05-16T08:19:31;5.38;;;1.17;;
62796;SDS011;48839;48.546;-4.178;2023-05-16T08:21:57;3.05;;;1.17;;
62796;SDS011;48839;48.546;-4.178;2023-05-16T08:24:23;9.02;;;1.52;;
62796;SDS011;48839;48.546;-4.178;2023-05-16T08:26:49;5.68;;;0.90;;
62796;SDS011;48839;48.546;-4.178;2023-05-16T08:29:15;5.10;;;1.00;;
62796;SDS011;48839;48.546;-4.178;2023-05-16T08:31:41;14.13;;;5.28;;
62796;SDS011;48839;48.546;-4.178;2023-05-16T08:34:07;9.27;;;1.10;;
62796;SDS011;48839;48.546;-4.178;2023-05-16T08:36:35;4.82;;;1.38;;
62796;SDS011;48839;48.546;-4.178;2023-05-16T08:39:01;3.85;;;1.10;;
62796;SDS011;48839;48.546;-4.178;2023-05-16T08:41:28;6.53;;;1.10;;
62796;SDS011;48839;48.546;-4.178;2023-05-16T08:43:55;4.47;;;0.73;;
62796;SDS011;48839;48.546;-4.178;2023-05-16T08:46:21;3.97;;;1.08;;
62796;SDS011;48839;48.546;-4.178;2023-05-16T08:48:51;6.30;;;1.60;;
62796;SDS011;48839;48.546;-4.178;2023-05-16T08:51:18;5.95;;;1.30;;
62796;SDS011;48839;48.546;-4.178;2023-05-16T08:53:45;4.38;;;0.90;;
62796;SDS011;48839;48.546;-4.178;2023-05-16T08:56:15;3.53;;;0.95;;
62796;SDS011;48839;48.546;-4.178;2023-05-16T08:58:42;3.03;;;1.13;;
62796;SDS011;48839;48.546;-4.178;2023-05-16T09:01:08;2.38;;;0.80;;
62796;SDS011;48839;48.546;-4.178;2023-05-16T09:03:36;3.40;;;1.00;;
62796;SDS011;48839;48.546;-4.178;2023-05-16T09:06:04;5.05;;;1.50;;
62796;SDS011;48839;48.546;-4.178;2023-05-16T09:08:30;7.63;;;1.27;;
62796;SDS011;48839;48.546;-4.178;2023-05-16T09:10:56;4.05;;;1.02;;
62796;SDS011;48839;48.546;-4.178;2023-05-16T09:13:23;2.38;;;0.95;;
62796;SDS011;48839;48.546;-4.178;2023-05-16T09:18:34;5.32;;;1.60;;
62796;SDS011;48839;48.546;-4.178;2023-05-16T09:21:00;7.40;;;1.35;;
62796;SDS011;48839;48.546;-4.178;2023-05-16T09:23:26;1.40;;;0.80;;
62796;SDS011;48839;48.546;-4.178;2023-05-16T09:25:52;7.18;;;1.35;;
62796;SDS011;48839;48.546;-4.178;2023-05-16T09:28:18;3.17;;;1.10;;
62796;SDS011;48839;48.546;-4.178;2023-05-16T09:30:45;3.40;;;1.05;;
62796;SDS011;48839;48.546;-4.178;2023-05-16T09:33:12;4.70;;;2.13;;
62796;SDS011;48839;48.546;-4.178;2023-05-16T09:35:38;3.25;;;1.20;;
62796;SDS011;48839;48.546;-4.178;2023-05-16T09:38:04;4.78;;;1.20;;
62796;SDS011;48839;48.546;-4.178;2023-05-16T09:40:30;4.10;;;1.10;;
62796;SDS011;48839;48.546;-4.178;2023-05-16T09:43:03;4.30;;;1.52;;
62796;SDS011;48839;48.546;-4.178;2023-05-16T09:45:33;9.67;;;1.60;;
62796;SDS011;48839;48.546;-4.178;2023-05-16T09:48:09;5.97;;;1.17;;
62796;SDS011;48839;48.546;-4.178;2023-05-16T09:50:38;2.53;;;1.25;;
62796;SDS011;48839;48.546;-4.178;2023-05-16T09:53:07;4.13;;;0.90;;
62796;SDS011;48839;48.546;-4.178;2023-05-16T09:55:33;10.65;;;2.05;;
62796;SDS011;48839;48.546;-4.178;2023-05-16T09:57:59;6.38;;;1.38;;
62796;SDS011;48839;48.546;-4.178;2023-05-16T10:00:29;5.22;;;1.30;;
62796;SDS011;48839;48.546;-4.178;2023-05-16T10:02:56;3.58;;;1.02;;
62796;SDS011;48839;48.546;-4.178;2023-05-16T10:05:23;1.90;;;1.13;;
62796;SDS011;48839;48.546;-4.178;2023-05-16T10:07:51;3.53;;;1.10;;
62796;SDS011;48839;48.546;-4.178;2023-05-16T10:10:17;5.20;;;1.25;;
62796;SDS011;48839;48.546;-4.178;2023-05-16T10:12:44;5.78;;;1.60;;
62796;SDS011;48839;48.546;-4.178;2023-05-16T10:15:10;9.43;;;2.63;;
62796;SDS011;48839;48.546;-4.178;2023-05-16T10:17:37;3.55;;;1.75;;
62796;SDS011;48839;48.546;-4.178;2023-05-16T10:20:05;6.35;;;1.20;;
62796;SDS011;48839;48.546;-4.178;2023-05-16T10:22:34;5.65;;;1.27;;
62796;SDS011;48839;48.546;-4.178;2023-05-16T10:27:36;5.43;;;1.58;;
62796;SDS011;48839;48.546;-4.178;2023-05-16T10:30:03;8.85;;;2.28;;
62796;SDS011;48839;48.546;-4.178;2023-05-16T10:32:31;3.30;;;1.15;;
62796;SDS011;48839;48.546;-4.178;2023-05-16T10:34:57;5.38;;;1.35;;
62796;SDS011;48839;48.546;-4.178;2023-05-16T10:37:25;5.72;;;1.38;;
62796;SDS011;48839;48.546;-4.178;2023-05-16T10:39:52;9.57;;;1.85;;
62796;SDS011;48839;48.546;-4.178;2023-05-16T10:42:18;7.03;;;1.10;;
62796;SDS011;48839;48.546;-4.178;2023-05-16T10:44:44;3.25;;;0.90;;
62796;SDS011;48839;48.546;-4.178;2023-05-16T10:47:10;1.77;;;1.02;;
62796;SDS011;48839;48.546;-4.178;2023-05-16T10:49:39;3.40;;;1.20;;
62796;SDS011;48839;48.546;-4.178;2023-05-16T10:52:09;6.22;;;2.60;;
62796;SDS011;48839;48.546;-4.178;2023-05-16T10:54:36;3.08;;;1.38;;
62796;SDS011;48839;48.546;-4.178;2023-05-16T10:57:24;6.28;;;1.48;;
62796;SDS011;48839;48.546;-4.178;2023-05-16T10:59:50;4.65;;;1.25;;
62796;SDS011;48839;48.546;-4.178;2023-05-16T11:04:50;6.50;;;1.73;;
62796;SDS011;48839;48.546;-4.178;2023-05-16T11:07:20;4.25;;;1.25;;
62796;SDS011;48839;48.546;-4.178;2023-05-16T11:10:08;5.32;;;1.15;;
62796;SDS011;48839;48.546;-4.178;2023-05-16T11:12:50;8.00;;;1.10;;
62796;SDS011;48839;48.546;-4.178;2023-05-16T11:15:23;4.45;;;1.73;;
62796;SDS011;48839;48.546;-4.178;2023-05-16T11:17:49;4.05;;;1.73;;
62796;SDS011;48839;48.546;-4.178;2023-05-16T11:20:32;7.07;;;0.98;;
62796;SDS011;48839;48.546;-4.178;2023-05-16T11:23:20;3.53;;;1.03;;
62796;SDS011;48839;48.546;-4.178;2023-05-16T11:25:46;4.30;;;1.00;;
62796;SDS011;48839;48.546;-4.178;2023-05-16T11:28:13;1.88;;;0.70;;
62796;SDS011;48839;48.546;-4.178;2023-05-16T11:30:42;4.35;;;0.98;;
62796;SDS011;48839;48.546;-4.178;2023-05-16T11:33:09;5.47;;;1.00;;
62796;SDS011;48839;48.546;-4.178;2023-05-16T11:35:37;4.10;;;1.25;;
62796;SDS011;48839;48.546;-4.178;2023-05-16T11:38:03;1.67;;;0.90;;
62796;SDS011;48839;48.546;-4.178;2023-05-16T11:40:29;3.92;;;1.00;;
62796;SDS011;48839;48.546;-4.178;2023-05-16T11:42:58;4.03;;;1.00;;
62796;SDS011;48839;48.546;-4.178;2023-05-16T11:45:24;5.38;;;0.85;;
62796;SDS011;48839;48.546;-4.178;2023-05-16T11:47:51;3.75;;;0.98;;
62796;SDS011;48839;48.546;-4.178;2023-05-16T11:50:18;3.38;;;1.90;;
62796;SDS011;48839;48.546;-4.178;2023-05-16T11:52:48;1.88;;;0.80;;
62796;SDS011;48839;48.546;-4.178;2023-05-16T11:55:18;5.35;;;1.10;;
62796;SDS011;48839;48.546;-4.178;2023-05-16T11:57:45;4.68;;;1.00;;
62796;SDS011;48839;48.546;-4.178;2023-05-16T12:00:15;1.73;;;0.90;;
62796;SDS011;48839;48.546;-4.178;2023-05-16T12:02:42;4.50;;;1.00;;
62796;SDS011;48839;48.546;-4.178;2023-05-16T12:05:09;2.72;;;0.70;;
62796;SDS011;48839;48.546;-4.178;2023-05-16T12:07:38;4.60;;;0.77;;
62796;SDS011;48839;48.546;-4.178;2023-05-16T12:10:08;5.70;;;1.58;;
62796;SDS011;48839;48.546;-4.178;2023-05-16T12:12:34;5.65;;;1.15;;
62796;SDS011;48839;48.546;-4.178;2023-05-16T12:15:03;1.67;;;0.73;;
62796;SDS011;48839;48.546;-4.178;2023-05-16T12:17:36;3.05;;;0.80;;
62796;SDS011;48839;48.546;-4.178;2023-05-16T12:20:03;3.83;;;0.90;;
62796;SDS011;48839;48.546;-4.178;2023-05-16T12:22:30;1.25;;;0.68;;
62796;SDS011;48839;48.546;-4.178;2023-05-16T12:25:17;3.55;;;0.80;;
62796;SDS011;48839;48.546;-4.178;2023-05-16T12:27:43;5.32;;;0.80;;
62796;SDS011;48839;48.546;-4.178;2023-05-16T12:30:09;3.70;;;1.17;;
62796;SDS011;48839;48.546;-4.178;2023-05-16T12:32:36;5.35;;;1.30;;
62796;SDS011;48839;48.546;-4.178;2023-05-16T12:35:02;3.55;;;0.90;;
62796;SDS011;48839;48.546;-4.178;2023-05-16T12:37:28;2.55;;;0.95;;
62796;SDS011;48839;48.546;-4.178;2023-05-16T12:40:00;3.00;;;1.08;;
62796;SDS011;48839;48.546;-4.178;2023-05-16T12:42:28;5.18;;;1.38;;
62796;SDS011;48839;48.546;-4.178;2023-05-16T12:44:55;1.55;;;0.80;;
62796;SDS011;48839;48.546;-4.178;2023-05-16T12:47:21;3.05;;;0.93;;
62796;SDS011;48839;48.546;-4.178;2023-05-16T12:49:47;5.07;;;1.25;;
62796;SDS011;48839;48.546;-4.178;2023-05-16T12:52:18;4.75;;;0.88;;
62796;SDS011;48839;48.546;-4.178;2023-05-16T12:54:45;3.40;;;0.90;;
62796;SDS011;48839;48.546;-4.178;2023-05-16T12:57:11;5.30;;;1.27;;
62796;SDS011;48839;48.546;-4.178;2023-05-16T12:59:38;1.88;;;0.95;;
62796;SDS011;48839;48.546;-4.178;2023-05-16T13:02:04;3.20;;;0.60;;
62796;SDS011;48839;48.546;-4.178;2023-05-16T13:04:30;5.43;;;0.80;;
62796;SDS011;48839;48.546;-4.178;2023-05-16T13:06:56;5.22;;;0.80;;
62796;SDS011;48839;48.546;-4.178;2023-05-16T13:09:22;4.70;;;0.60;;
62796;SDS011;48839;48.546;-4.178;2023-05-16T13:11:48;4.97;;;1.00;;
62796;SDS011;48839;48.546;-4.178;2023-05-16T13:14:14;2.75;;;0.85;;
62796;SDS011;48839;48.546;-4.178;2023-05-16T13:16:44;1.58;;;0.75;;
62796;SDS011;48839;48.546;-4.178;2023-05-16T13:19:10;1.38;;;0.70;;
62796;SDS011;48839;48.546;-4.178;2023-05-16T13:21:36;3.72;;;0.90;;
62796;SDS011;48839;48.546;-4.178;2023-05-16T13:24:02;3.28;;;0.70;;
62796;SDS011;48839;48.546;-4.178;2023-05-16T13:26:28;3.25;;;0.70;;
62796;SDS011;48839;48.546;-4.178;2023-05-16T13:28:54;1.75;;;0.70;;
62796;SDS011;48839;48.546;-4.178;2023-05-16T13:31:20;5.28;;;0.80;;
62796;SDS011;48839;48.546;-4.178;2023-05-16T13:33:46;2.20;;;1.02;;
62796;SDS011;48839;48.546;-4.178;2023-05-16T13:36:13;1.17;;;0.80;;
62796;SDS011;48839;48.546;-4.178;2023-05-16T13:38:39;2.45;;;0.70;;
62796;SDS011;48839;48.546;-4.178;2023-05-16T13:41:08;2.10;;;0.80;;
62796;SDS011;48839;48.546;-4.178;2023-05-16T13:43:34;3.97;;;0.68;;
62796;SDS011;48839;48.546;-4.178;2023-05-16T13:46:00;2.45;;;0.60;;
62796;SDS011;48839;48.546;-4.178;2023-05-16T13:48:25;3.22;;;0.70;;
62796;SDS011;48839;48.546;-4.178;2023-05-16T13:50:52;3.70;;;0.95;;
62796;SDS011;48839;48.546;-4.178;2023-05-16T13:53:18;2.65;;;0.57;;
62796;SDS011;48839;48.546;-4.178;2023-05-16T13:55:44;3.80;;;0.80;;
62796;SDS011;48839;48.546;-4.178;2023-05-16T13:58:10;1.38;;;0.70;;
62796;SDS011;48839;48.546;-4.178;2023-05-16T14:00:36;0.80;;;0.45;;
62796;SDS011;48839;48.546;-4.178;2023-05-16T14:03:02;4.20;;;0.90;;
62796;SDS011;48839;48.546;-4.178;2023-05-16T14:05:28;1.60;;;0.73;;
62796;SDS011;48839;48.546;-4.178;2023-05-16T14:07:54;3.15;;;0.75;;
62796;SDS011;48839;48.546;-4.178;2023-05-16T14:10:20;1.35;;;0.52;;
62796;SDS011;48839;48.546;-4.178;2023-05-16T14:12:46;2.72;;;0.90;;
62796;SDS011;48839;48.546;-4.178;2023-05-16T14:15:13;1.95;;;0.70;;
62796;SDS011;48839;48.546;-4.178;2023-05-16T14:17:39;2.10;;;0.82;;
62796;SDS011;48839;48.546;-4.178;2023-05-16T14:20:05;2.00;;;0.60;;
62796;SDS011;48839;48.546;-4.178;2023-05-16T14:22:34;2.10;;;1.48;;
62796;SDS011;48839;48.546;-4.178;2023-05-16T14:25:00;2.50;;;0.65;;
62796;SDS011;48839;48.546;-4.178;2023-05-16T14:27:26;3.53;;;0.73;;
62796;SDS011;48839;48.546;-4.178;2023-05-16T14:29:52;1.20;;;0.70;;
62796;SDS011;48839;48.546;-4.178;2023-05-16T14:32:19;2.20;;;0.75;;
62796;SDS011;48839;48.546;-4.178;2023-05-16T14:34:45;3.05;;;0.60;;
62796;SDS011;48839;48.546;-4.178;2023-05-16T14:37:12;3.97;;;1.17;;
62796;SDS011;48839;48.546;-4.178;2023-05-16T14:39:40;4.50;;;0.65;;
62796;SDS011;48839;48.546;-4.178;2023-05-16T14:42:06;2.53;;;0.63;;
62796;SDS011;48839;48.546;-4.178;2023-05-16T14:44:32;1.85;;;0.50;;
62796;SDS011;48839;48.546;-4.178;2023-05-16T14:46:58;2.45;;;0.65;;